Sadsburyville, Pennsylvania
Current Conditions -  °F | °C
As of 1:35 PM on Sunday 25 Jan 2015 (Local Time) from KMQS Reporting Station
Clear Clear  
Wind Chill: 34°   Ceiling: Unl
Heat Index: 41°   Visibility: 10mi
Dew Point: 34°   Wind: 13mph
Humidity: 76%   Direction: 290°WNW
Pressure: 29.79"   Gusts: 17mph
Location:  39.98°N, 75.89°W
Report Text: KMQS 251835Z AUTO 29011G15KT 10SM CLR 05/01 A2979 RMK AO2
Loading
Personal Weather Stations






























Interactive Weather Map New forecast layout! Learn more

10-Day Weather Forecast

Advertisements
Track Severe Weather on mobile